sensor_id;sensor_type;location;lat;lon;timestamp;P1;durP1;ratioP1;P2;durP2;ratioP2
52360;SDS011;38294;42.966;1.608;2022-09-28T02:22:46;6.47;;;0.88;;
52360;SDS011;38294;42.966;1.608;2022-09-28T02:25:37;4.13;;;1.27;;
52360;SDS011;38294;42.966;1.608;2022-09-28T02:28:05;4.80;;;0.93;;
52360;SDS011;38294;42.966;1.608;2022-09-28T02:30:34;3.55;;;1.10;;
52360;SDS011;38294;42.966;1.608;2022-09-28T02:33:04;0.77;;;0.68;;
52360;SDS011;38294;42.966;1.608;2022-09-28T02:35:36;3.90;;;0.70;;
52360;SDS011;38294;42.966;1.608;2022-09-28T02:38:03;2.22;;;0.98;;
52360;SDS011;38294;42.966;1.608;2022-09-28T02:40:30;3.78;;;0.80;;
52360;SDS011;38294;42.966;1.608;2022-09-28T02:46:07;3.40;;;1.10;;
52360;SDS011;38294;42.966;1.608;2022-09-28T02:51:37;3.85;;;1.00;;
52360;SDS011;38294;42.966;1.608;2022-09-28T02:57:23;5.07;;;0.82;;
52360;SDS011;38294;42.966;1.608;2022-09-28T03:08:42;0.95;;;0.70;;
52360;SDS011;38294;42.966;1.608;2022-09-28T03:11:13;16.35;;;7.25;;
52360;SDS011;38294;42.966;1.608;2022-09-28T03:13:47;16.13;;;7.50;;
52360;SDS011;38294;42.966;1.608;2022-09-28T03:16:15;13.77;;;8.75;;
52360;SDS011;38294;42.966;1.608;2022-09-28T03:18:42;11.90;;;6.82;;
52360;SDS011;38294;42.966;1.608;2022-09-28T03:21:12;4.88;;;3.13;;
52360;SDS011;38294;42.966;1.608;2022-09-28T03:23:39;1.80;;;0.73;;
52360;SDS011;38294;42.966;1.608;2022-09-28T03:26:12;1.80;;;0.80;;
52360;SDS011;38294;42.966;1.608;2022-09-28T03:28:38;3.33;;;2.10;;
52360;SDS011;38294;42.966;1.608;2022-09-28T03:31:04;3.33;;;1.30;;
52360;SDS011;38294;42.966;1.608;2022-09-28T03:33:30;3.28;;;0.90;;
52360;SDS011;38294;42.966;1.608;2022-09-28T03:35:55;4.03;;;0.88;;
52360;SDS011;38294;42.966;1.608;2022-09-28T03:38:21;3.08;;;0.70;;
52360;SDS011;38294;42.966;1.608;2022-09-28T03:40:56;2.55;;;0.63;;
52360;SDS011;38294;42.966;1.608;2022-09-28T03:43:23;2.38;;;0.60;;
52360;SDS011;38294;42.966;1.608;2022-09-28T03:45:54;2.50;;;0.65;;
52360;SDS011;38294;42.966;1.608;2022-09-28T03:48:21;3.17;;;0.77;;
52360;SDS011;38294;42.966;1.608;2022-09-28T03:50:51;1.10;;;0.77;;
52360;SDS011;38294;42.966;1.608;2022-09-28T03:53:18;1.20;;;0.73;;
52360;SDS011;38294;42.966;1.608;2022-09-28T03:55:44;3.08;;;0.90;;
52360;SDS011;38294;42.966;1.608;2022-09-28T03:58:09;2.92;;;0.88;;
52360;SDS011;38294;42.966;1.608;2022-09-28T04:00:36;1.63;;;0.63;;
52360;SDS011;38294;42.966;1.608;2022-09-28T04:03:02;0.63;;;0.63;;
52360;SDS011;38294;42.966;1.608;2022-09-28T04:05:28;2.40;;;0.60;;
52360;SDS011;38294;42.966;1.608;2022-09-28T04:07:54;2.15;;;0.75;;
52360;SDS011;38294;42.966;1.608;2022-09-28T04:10:22;0.73;;;0.70;;
52360;SDS011;38294;42.966;1.608;2022-09-28T04:12:48;1.92;;;0.85;;
52360;SDS011;38294;42.966;1.608;2022-09-28T04:15:15;1.23;;;0.80;;
52360;SDS011;38294;42.966;1.608;2022-09-28T04:17:40;1.17;;;0.70;;
52360;SDS011;38294;42.966;1.608;2022-09-28T04:20:07;0.77;;;0.63;;
52360;SDS011;38294;42.966;1.608;2022-09-28T04:22:33;1.65;;;0.70;;
52360;SDS011;38294;42.966;1.608;2022-09-28T04:24:58;0.90;;;0.70;;
52360;SDS011;38294;42.966;1.608;2022-09-28T04:27:24;1.10;;;0.70;;
52360;SDS011;38294;42.966;1.608;2022-09-28T04:30:08;0.70;;;0.70;;
52360;SDS011;38294;42.966;1.608;2022-09-28T04:32:34;1.67;;;0.60;;
52360;SDS011;38294;42.966;1.608;2022-09-28T04:34:59;2.33;;;0.60;;
52360;SDS011;38294;42.966;1.608;2022-09-28T04:37:25;0.73;;;0.60;;
52360;SDS011;38294;42.966;1.608;2022-09-28T04:39:50;3.28;;;0.70;;
52360;SDS011;38294;42.966;1.608;2022-09-28T04:42:16;2.70;;;0.80;;
52360;SDS011;38294;42.966;1.608;2022-09-28T04:44:41;5.88;;;0.90;;
52360;SDS011;38294;42.966;1.608;2022-09-28T04:47:07;0.65;;;0.65;;
52360;SDS011;38294;42.966;1.608;2022-09-28T04:49:32;0.55;;;0.50;;
52360;SDS011;38294;42.966;1.608;2022-09-28T04:52:01;1.38;;;0.50;;
52360;SDS011;38294;42.966;1.608;2022-09-28T04:54:26;2.50;;;0.50;;
52360;SDS011;38294;42.966;1.608;2022-09-28T04:56:52;0.55;;;0.55;;
52360;SDS011;38294;42.966;1.608;2022-09-28T04:59:18;0.60;;;0.43;;
52360;SDS011;38294;42.966;1.608;2022-09-28T05:01:43;0.40;;;0.40;;
52360;SDS011;38294;42.966;1.608;2022-09-28T05:04:09;0.90;;;0.70;;
52360;SDS011;38294;42.966;1.608;2022-09-28T05:06:34;0.40;;;0.40;;
52360;SDS011;38294;42.966;1.608;2022-09-28T05:09:00;0.60;;;0.60;;
52360;SDS011;38294;42.966;1.608;2022-09-28T05:11:25;0.85;;;0.60;;
52360;SDS011;38294;42.966;1.608;2022-09-28T05:13:51;0.60;;;0.60;;
52360;SDS011;38294;42.966;1.608;2022-09-28T05:16:16;1.02;;;0.60;;
52360;SDS011;38294;42.966;1.608;2022-09-28T05:18:42;1.00;;;0.50;;
52360;SDS011;38294;42.966;1.608;2022-09-28T05:21:08;0.40;;;0.40;;
52360;SDS011;38294;42.966;1.608;2022-09-28T05:23:35;0.50;;;0.50;;
52360;SDS011;38294;42.966;1.608;2022-09-28T05:26:00;0.60;;;0.60;;
52360;SDS011;38294;42.966;1.608;2022-09-28T05:28:27;0.40;;;0.40;;
52360;SDS011;38294;42.966;1.608;2022-09-28T05:30:57;0.50;;;0.50;;
52360;SDS011;38294;42.966;1.608;2022-09-28T05:33:26;0.68;;;0.47;;
52360;SDS011;38294;42.966;1.608;2022-09-28T05:35:52;0.90;;;0.50;;
52360;SDS011;38294;42.966;1.608;2022-09-28T05:38:18;0.60;;;0.60;;
52360;SDS011;38294;42.966;1.608;2022-09-28T05:40:43;0.52;;;0.50;;
52360;SDS011;38294;42.966;1.608;2022-09-28T05:43:09;0.93;;;0.50;;
52360;SDS011;38294;42.966;1.608;2022-09-28T05:45:34;0.45;;;0.45;;
52360;SDS011;38294;42.966;1.608;2022-09-28T05:48:00;0.40;;;0.40;;
52360;SDS011;38294;42.966;1.608;2022-09-28T05:50:26;0.60;;;0.50;;
52360;SDS011;38294;42.966;1.608;2022-09-28T05:53:02;1.48;;;0.57;;
52360;SDS011;38294;42.966;1.608;2022-09-28T05:55:29;1.38;;;0.45;;
52360;SDS011;38294;42.966;1.608;2022-09-28T05:57:59;1.00;;;0.40;;
52360;SDS011;38294;42.966;1.608;2022-09-28T06:00:25;0.40;;;0.40;;
52360;SDS011;38294;42.966;1.608;2022-09-28T06:02:56;1.95;;;0.50;;
52360;SDS011;38294;42.966;1.608;2022-09-28T06:05:27;0.40;;;0.40;;
52360;SDS011;38294;42.966;1.608;2022-09-28T06:07:59;2.10;;;0.50;;
52360;SDS011;38294;42.966;1.608;2022-09-28T06:10:26;0.52;;;0.50;;
52360;SDS011;38294;42.966;1.608;2022-09-28T06:12:53;2.47;;;0.50;;
52360;SDS011;38294;42.966;1.608;2022-09-28T06:15:20;1.15;;;0.50;;
52360;SDS011;38294;42.966;1.608;2022-09-28T06:17:46;0.40;;;0.40;;
52360;SDS011;38294;42.966;1.608;2022-09-28T06:20:11;0.52;;;0.40;;
52360;SDS011;38294;42.966;1.608;2022-09-28T06:22:37;1.27;;;0.57;;
52360;SDS011;38294;42.966;1.608;2022-09-28T06:25:03;1.33;;;0.47;;
52360;SDS011;38294;42.966;1.608;2022-09-28T06:27:30;0.75;;;0.55;;
52360;SDS011;38294;42.966;1.608;2022-09-28T06:29:57;0.50;;;0.50;;
52360;SDS011;38294;42.966;1.608;2022-09-28T06:32:26;0.73;;;0.30;;
52360;SDS011;38294;42.966;1.608;2022-09-28T06:34:53;0.52;;;0.50;;
52360;SDS011;38294;42.966;1.608;2022-09-28T06:37:19;0.88;;;0.50;;
52360;SDS011;38294;42.966;1.608;2022-09-28T06:39:44;0.60;;;0.43;;
52360;SDS011;38294;42.966;1.608;2022-09-28T06:42:10;1.15;;;0.52;;
52360;SDS011;38294;42.966;1.608;2022-09-28T06:44:35;1.70;;;0.60;;
52360;SDS011;38294;42.966;1.608;2022-09-28T06:47:01;0.80;;;0.60;;
52360;SDS011;38294;42.966;1.608;2022-09-28T06:49:27;1.80;;;0.57;;
52360;SDS011;38294;42.966;1.608;2022-09-28T06:51:54;1.27;;;0.40;;
52360;SDS011;38294;42.966;1.608;2022-09-28T06:54:20;9.27;;;2.85;;
52360;SDS011;38294;42.966;1.608;2022-09-28T06:56:50;0.75;;;0.60;;
52360;SDS011;38294;42.966;1.608;2022-09-28T06:59:18;9.35;;;2.22;;
52360;SDS011;38294;42.966;1.608;2022-09-28T07:01:44;2.15;;;0.70;;
52360;SDS011;38294;42.966;1.608;2022-09-28T07:04:10;2.70;;;1.20;;
52360;SDS011;38294;42.966;1.608;2022-09-28T07:06:35;17.00;;;5.45;;
52360;SDS011;38294;42.966;1.608;2022-09-28T07:09:02;2.17;;;0.77;;
52360;SDS011;38294;42.966;1.608;2022-09-28T07:11:35;5.55;;;1.23;;
52360;SDS011;38294;42.966;1.608;2022-09-28T07:14:03;30.23;;;4.85;;
52360;SDS011;38294;42.966;1.608;2022-09-28T07:16:29;48.13;;;6.82;;
52360;SDS011;38294;42.966;1.608;2022-09-28T07:18:55;27.73;;;2.72;;
52360;SDS011;38294;42.966;1.608;2022-09-28T07:21:20;2.17;;;1.30;;
52360;SDS011;38294;42.966;1.608;2022-09-28T07:23:46;2.72;;;0.60;;
52360;SDS011;38294;42.966;1.608;2022-09-28T07:26:12;5.57;;;1.00;;
52360;SDS011;38294;42.966;1.608;2022-09-28T07:28:38;1.40;;;0.82;;
52360;SDS011;38294;42.966;1.608;2022-09-28T07:31:05;19.40;;;2.67;;
52360;SDS011;38294;42.966;1.608;2022-09-28T07:33:31;15.57;;;2.13;;
52360;SDS011;38294;42.966;1.608;2022-09-28T07:35:57;4.30;;;1.30;;
52360;SDS011;38294;42.966;1.608;2022-09-28T07:38:24;15.23;;;2.28;;
52360;SDS011;38294;42.966;1.608;2022-09-28T07:40:50;2.42;;;1.38;;
52360;SDS011;38294;42.966;1.608;2022-09-28T07:43:34;8.65;;;2.13;;
52360;SDS011;38294;42.966;1.608;2022-09-28T07:46:00;7.70;;;2.35;;
52360;SDS011;38294;42.966;1.608;2022-09-28T07:48:25;5.00;;;1.40;;
52360;SDS011;38294;42.966;1.608;2022-09-28T07:50:52;3.55;;;1.50;;
52360;SDS011;38294;42.966;1.608;2022-09-28T07:53:21;2.13;;;1.13;;
52360;SDS011;38294;42.966;1.608;2022-09-28T07:55:51;2.35;;;1.33;;
52360;SDS011;38294;42.966;1.608;2022-09-28T07:58:20;8.27;;;2.67;;
52360;SDS011;38294;42.966;1.608;2022-09-28T08:00:47;0.73;;;0.60;;
52360;SDS011;38294;42.966;1.608;2022-09-28T08:03:14;5.57;;;0.63;;
52360;SDS011;38294;42.966;1.608;2022-09-28T08:05:41;7.72;;;0.88;;
52360;SDS011;38294;42.966;1.608;2022-09-28T08:08:07;0.75;;;0.57;;
52360;SDS011;38294;42.966;1.608;2022-09-28T08:10:33;0.90;;;0.60;;
52360;SDS011;38294;42.966;1.608;2022-09-28T08:12:59;0.30;;;0.30;;
52360;SDS011;38294;42.966;1.608;2022-09-28T08:15:27;0.90;;;0.60;;
52360;SDS011;38294;42.966;1.608;2022-09-28T08:17:54;0.40;;;0.40;;
52360;SDS011;38294;42.966;1.608;2022-09-28T08:20:20;0.50;;;0.50;;
52360;SDS011;38294;42.966;1.608;2022-09-28T08:23:08;0.40;;;0.40;;
52360;SDS011;38294;42.966;1.608;2022-09-28T08:25:35;2.30;;;0.70;;
52360;SDS011;38294;42.966;1.608;2022-09-28T08:28:01;0.50;;;0.50;;
52360;SDS011;38294;42.966;1.608;2022-09-28T08:30:28;2.47;;;0.50;;
52360;SDS011;38294;42.966;1.608;2022-09-28T08:32:55;0.30;;;0.30;;
52360;SDS011;38294;42.966;1.608;2022-09-28T08:35:21;6.78;;;0.90;;
52360;SDS011;38294;42.966;1.608;2022-09-28T08:37:49;2.63;;;0.60;;
52360;SDS011;38294;42.966;1.608;2022-09-28T08:40:19;1.08;;;0.70;;
52360;SDS011;38294;42.966;1.608;2022-09-28T08:42:52;0.95;;;0.68;;
52360;SDS011;38294;42.966;1.608;2022-09-28T08:45:24;0.80;;;0.70;;
52360;SDS011;38294;42.966;1.608;2022-09-28T08:51:04;1.63;;;0.50;;
52360;SDS011;38294;42.966;1.608;2022-09-28T08:53:38;1.55;;;0.50;;
52360;SDS011;38294;42.966;1.608;2022-09-28T08:56:11;0.68;;;0.40;;
52360;SDS011;38294;42.966;1.608;2022-09-28T08:58:54;1.98;;;0.60;;
52360;SDS011;38294;42.966;1.608;2022-09-28T09:01:23;0.63;;;0.45;;
52360;SDS011;38294;42.966;1.608;2022-09-28T09:03:52;0.32;;;0.32;;
52360;SDS011;38294;42.966;1.608;2022-09-28T09:11:58;0.40;;;0.40;;
52360;SDS011;38294;42.966;1.608;2022-09-28T09:15:02;0.82;;;0.50;;
52360;SDS011;38294;42.966;1.608;2022-09-28T09:22:57;0.82;;;0.82;;
52360;SDS011;38294;42.966;1.608;2022-09-28T09:30:43;1.30;;;0.60;;
52360;SDS011;38294;42.966;1.608;2022-09-28T09:42:28;2.70;;;0.70;;
52360;SDS011;38294;42.966;1.608;2022-09-28T09:47:51;1.52;;;0.60;;
52360;SDS011;38294;42.966;1.608;2022-09-28T09:55:44;0.98;;;0.60;;
52360;SDS011;38294;42.966;1.608;2022-09-28T10:01:06;1.92;;;0.43;;
52360;SDS011;38294;42.966;1.608;2022-09-28T10:03:35;1.42;;;0.63;;
52360;SDS011;38294;42.966;1.608;2022-09-28T10:06:07;2.00;;;0.70;;
52360;SDS011;38294;42.966;1.608;2022-09-28T10:08:38;1.50;;;0.40;;
52360;SDS011;38294;42.966;1.608;2022-09-28T10:11:15;1.67;;;0.70;;
52360;SDS011;38294;42.966;1.608;2022-09-28T10:13:46;1.50;;;0.57;;
52360;SDS011;38294;42.966;1.608;2022-09-28T10:16:13;2.17;;;0.60;;
52360;SDS011;38294;42.966;1.608;2022-09-28T10:18:42;2.85;;;0.80;;
52360;SDS011;38294;42.966;1.608;2022-09-28T10:21:14;1.15;;;0.60;;
52360;SDS011;38294;42.966;1.608;2022-09-28T10:23:42;1.27;;;0.90;;
52360;SDS011;38294;42.966;1.608;2022-09-28T10:26:11;3.38;;;0.82;;
52360;SDS011;38294;42.966;1.608;2022-09-28T10:28:51;3.60;;;0.90;;
52360;SDS011;38294;42.966;1.608;2022-09-28T10:34:02;2.80;;;0.90;;
52360;SDS011;38294;42.966;1.608;2022-09-28T10:36:30;2.13;;;0.60;;
52360;SDS011;38294;42.966;1.608;2022-09-28T10:39:03;2.47;;;0.70;;
52360;SDS011;38294;42.966;1.608;2022-09-28T10:41:30;4.85;;;0.70;;
52360;SDS011;38294;42.966;1.608;2022-09-28T10:43:56;2.28;;;0.90;;
52360;SDS011;38294;42.966;1.608;2022-09-28T10:46:31;2.78;;;0.77;;
52360;SDS011;38294;42.966;1.608;2022-09-28T10:49:05;1.70;;;0.82;;
52360;SDS011;38294;42.966;1.608;2022-09-28T10:51:43;1.13;;;0.60;;
52360;SDS011;38294;42.966;1.608;2022-09-28T10:54:23;2.05;;;0.70;;
52360;SDS011;38294;42.966;1.608;2022-09-28T10:56:50;2.38;;;0.68;;
52360;SDS011;38294;42.966;1.608;2022-09-28T11:01:59;2.05;;;0.70;;
52360;SDS011;38294;42.966;1.608;2022-09-28T11:04:26;2.70;;;1.15;;
52360;SDS011;38294;42.966;1.608;2022-09-28T11:06:53;0.90;;;0.60;;
52360;SDS011;38294;42.966;1.608;2022-09-28T11:11:58;2.38;;;0.77;;
52360;SDS011;38294;42.966;1.608;2022-09-28T11:19:47;4.00;;;0.88;;
52360;SDS011;38294;42.966;1.608;2022-09-28T11:22:23;1.48;;;0.75;;
52360;SDS011;38294;42.966;1.608;2022-09-28T11:24:49;2.92;;;0.90;;
52360;SDS011;38294;42.966;1.608;2022-09-28T11:27:24;3.88;;;1.20;;
52360;SDS011;38294;42.966;1.608;2022-09-28T11:29:56;3.22;;;0.73;;
52360;SDS011;38294;42.966;1.608;2022-09-28T11:32:24;3.97;;;0.63;;
52360;SDS011;38294;42.966;1.608;2022-09-28T11:34:55;2.42;;;0.77;;
52360;SDS011;38294;42.966;1.608;2022-09-28T11:38:29;1.67;;;0.77;;
52360;SDS011;38294;42.966;1.608;2022-09-28T11:46:31;3.67;;;0.70;;
52360;SDS011;38294;42.966;1.608;2022-09-28T11:51:44;1.65;;;0.68;;
52360;SDS011;38294;42.966;1.608;2022-09-28T11:54:37;2.00;;;0.70;;
52360;SDS011;38294;42.966;1.608;2022-09-28T11:57:04;4.70;;;0.80;;
52360;SDS011;38294;42.966;1.608;2022-09-28T11:59:58;1.30;;;0.57;;
52360;SDS011;38294;42.966;1.608;2022-09-28T12:02:33;1.90;;;0.70;;
52360;SDS011;38294;42.966;1.608;2022-09-28T12:05:11;2.13;;;0.70;;
52360;SDS011;38294;42.966;1.608;2022-09-28T12:07:58;1.17;;;0.65;;
52360;SDS011;38294;42.966;1.608;2022-09-28T12:10:44;1.13;;;0.60;;
52360;SDS011;38294;42.966;1.608;2022-09-28T12:13:17;1.95;;;0.77;;
52360;SDS011;38294;42.966;1.608;2022-09-28T12:23:40;2.25;;;0.50;;
52360;SDS011;38294;42.966;1.608;2022-09-28T12:29:24;0.85;;;0.50;;
52360;SDS011;38294;42.966;1.608;2022-09-28T12:31:58;0.93;;;0.50;;
52360;SDS011;38294;42.966;1.608;2022-09-28T12:34:40;1.00;;;0.60;;
52360;SDS011;38294;42.966;1.608;2022-09-28T12:56:04;0.82;;;0.40;;
52360;SDS011;38294;42.966;1.608;2022-09-28T13:04:24;1.20;;;0.60;;
52360;SDS011;38294;42.966;1.608;2022-09-28T13:07:11;0.55;;;0.40;;
52360;SDS011;38294;42.966;1.608;2022-09-28T13:15:13;2.15;;;0.40;;
52360;SDS011;38294;42.966;1.608;2022-09-28T13:25:35;1.38;;;0.55;;
52360;SDS011;38294;42.966;1.608;2022-09-28T13:28:05;3.73;;;0.50;;
52360;SDS011;38294;42.966;1.608;2022-09-28T13:30:32;0.50;;;0.30;;
52360;SDS011;38294;42.966;1.608;2022-09-28T13:33:00;0.90;;;0.60;;
52360;SDS011;38294;42.966;1.608;2022-09-28T13:35:28;0.45;;;0.30;;
52360;SDS011;38294;42.966;1.608;2022-09-28T13:41:11;0.30;;;0.30;;
52360;SDS011;38294;42.966;1.608;2022-09-28T13:52:21;0.50;;;0.40;;
52360;SDS011;38294;42.966;1.608;2022-09-28T13:55:08;0.63;;;0.47;;
52360;SDS011;38294;42.966;1.608;2022-09-28T14:00:26;0.40;;;0.40;;
52360;SDS011;38294;42.966;1.608;2022-09-28T14:03:25;3.38;;;0.50;;
52360;SDS011;38294;42.966;1.608;2022-09-28T14:11:52;0.50;;;0.40;;
52360;SDS011;38294;42.966;1.608;2022-09-28T14:19:43;1.52;;;0.75;;
52360;SDS011;38294;42.966;1.608;2022-09-28T14:22:15;1.02;;;0.50;;
52360;SDS011;38294;42.966;1.608;2022-09-28T14:32:40;1.95;;;0.50;;
52360;SDS011;38294;42.966;1.608;2022-09-28T14:35:16;1.00;;;0.50;;
52360;SDS011;38294;42.966;1.608;2022-09-28T14:37:57;0.50;;;0.50;;
52360;SDS011;38294;42.966;1.608;2022-09-28T14:56:34;0.65;;;0.60;;
52360;SDS011;38294;42.966;1.608;2022-09-28T14:59:04;0.80;;;0.60;;
52360;SDS011;38294;42.966;1.608;2022-09-28T15:01:36;0.70;;;0.50;;
52360;SDS011;38294;42.966;1.608;2022-09-28T15:04:03;1.85;;;0.50;;
52360;SDS011;38294;42.966;1.608;2022-09-28T15:12:13;1.17;;;0.90;;
52360;SDS011;38294;42.966;1.608;2022-09-28T15:17:19;1.13;;;0.70;;
52360;SDS011;38294;42.966;1.608;2022-09-28T15:22:56;1.27;;;0.43;;
52360;SDS011;38294;42.966;1.608;2022-09-28T15:25:25;1.55;;;0.50;;
52360;SDS011;38294;42.966;1.608;2022-09-28T15:27:56;1.17;;;0.93;;
52360;SDS011;38294;42.966;1.608;2022-09-28T15:30:27;0.70;;;0.55;;
52360;SDS011;38294;42.966;1.608;2022-09-28T15:32:57;0.60;;;0.40;;
52360;SDS011;38294;42.966;1.608;2022-09-28T15:35:47;1.90;;;0.50;;
52360;SDS011;38294;42.966;1.608;2022-09-28T15:38:23;0.40;;;0.40;;
52360;SDS011;38294;42.966;1.608;2022-09-28T15:40:48;1.02;;;0.70;;
52360;SDS011;38294;42.966;1.608;2022-09-28T15:45:54;0.65;;;0.60;;
52360;SDS011;38294;42.966;1.608;2022-09-28T15:51:10;2.55;;;0.70;;
52360;SDS011;38294;42.966;1.608;2022-09-28T15:53:40;1.10;;;0.60;;
52360;SDS011;38294;42.966;1.608;2022-09-28T15:56:07;1.77;;;0.70;;
52360;SDS011;38294;42.966;1.608;2022-09-28T15:58:36;0.70;;;0.55;;
52360;SDS011;38294;42.966;1.608;2022-09-28T16:04:00;0.40;;;0.40;;
52360;SDS011;38294;42.966;1.608;2022-09-28T16:09:30;1.10;;;0.88;;
52360;SDS011;38294;42.966;1.608;2022-09-28T16:11:56;1.10;;;0.82;;
52360;SDS011;38294;42.966;1.608;2022-09-28T16:14:23;1.58;;;0.82;;
52360;SDS011;38294;42.966;1.608;2022-09-28T16:16:51;1.17;;;0.93;;
52360;SDS011;38294;42.966;1.608;2022-09-28T16:19:23;1.75;;;0.63;;
52360;SDS011;38294;42.966;1.608;2022-09-28T16:21:54;1.73;;;0.85;;
52360;SDS011;38294;42.966;1.608;2022-09-28T16:24:22;1.23;;;0.60;;
52360;SDS011;38294;42.966;1.608;2022-09-28T16:29:39;1.65;;;0.85;;
52360;SDS011;38294;42.966;1.608;2022-09-28T16:34:51;0.50;;;0.50;;
52360;SDS011;38294;42.966;1.608;2022-09-28T16:37:38;0.30;;;0.30;;
52360;SDS011;38294;42.966;1.608;2022-09-28T16:40:06;0.60;;;0.60;;
52360;SDS011;38294;42.966;1.608;2022-09-28T16:42:42;0.85;;;0.70;;
52360;SDS011;38294;42.966;1.608;2022-09-28T16:50:06;2.35;;;0.80;;
52360;SDS011;38294;42.966;1.608;2022-09-28T16:52:36;0.50;;;0.50;;
52360;SDS011;38294;42.966;1.608;2022-09-28T16:55:20;0.60;;;0.60;;
52360;SDS011;38294;42.966;1.608;2022-09-28T16:57:46;1.08;;;0.70;;
52360;SDS011;38294;42.966;1.608;2022-09-28T17:00:15;3.25;;;0.70;;
52360;SDS011;38294;42.966;1.608;2022-09-28T17:02:45;3.45;;;0.70;;
52360;SDS011;38294;42.966;1.608;2022-09-28T17:05:12;0.80;;;0.80;;
52360;SDS011;38294;42.966;1.608;2022-09-28T17:07:40;1.70;;;0.80;;
52360;SDS011;38294;42.966;1.608;2022-09-28T17:10:49;1.80;;;0.80;;
52360;SDS011;38294;42.966;1.608;2022-09-28T17:13:00;2.05;;;0.80;;
52360;SDS011;38294;42.966;1.608;2022-09-28T17:15:26;1.33;;;0.80;;
52360;SDS011;38294;42.966;1.608;2022-09-28T17:17:51;2.05;;;0.82;;
52360;SDS011;38294;42.966;1.608;2022-09-28T17:22:46;4.63;;;0.80;;
52360;SDS011;38294;42.966;1.608;2022-09-28T17:25:12;20.80;;;3.47;;
52360;SDS011;38294;42.966;1.608;2022-09-28T17:27:39;4.68;;;0.98;;
52360;SDS011;38294;42.966;1.608;2022-09-28T17:30:10;1.98;;;1.20;;
52360;SDS011;38294;42.966;1.608;2022-09-28T17:32:37;2.25;;;0.70;;
52360;SDS011;38294;42.966;1.608;2022-09-28T17:37:34;2.67;;;0.90;;
52360;SDS011;38294;42.966;1.608;2022-09-28T17:40:00;2.95;;;0.70;;
52360;SDS011;38294;42.966;1.608;2022-09-28T17:42:26;2.58;;;0.80;;
52360;SDS011;38294;42.966;1.608;2022-09-28T17:44:51;0.70;;;0.70;;
52360;SDS011;38294;42.966;1.608;2022-09-28T17:47:16;2.90;;;0.77;;
52360;SDS011;38294;42.966;1.608;2022-09-28T17:49:42;2.33;;;0.68;;
52360;SDS011;38294;42.966;1.608;2022-09-28T17:52:08;1.10;;;0.50;;
52360;SDS011;38294;42.966;1.608;2022-09-28T17:54:33;2.22;;;0.82;;
52360;SDS011;38294;42.966;1.608;2022-09-28T17:56:59;4.68;;;0.90;;
52360;SDS011;38294;42.966;1.608;2022-09-28T17:59:24;3.20;;;0.90;;
52360;SDS011;38294;42.966;1.608;2022-09-28T18:01:52;2.55;;;1.02;;
52360;SDS011;38294;42.966;1.608;2022-09-28T18:04:17;4.72;;;1.00;;
52360;SDS011;38294;42.966;1.608;2022-09-28T18:06:43;3.92;;;0.95;;
52360;SDS011;38294;42.966;1.608;2022-09-28T18:09:12;4.05;;;1.10;;
52360;SDS011;38294;42.966;1.608;2022-09-28T18:11:40;7.50;;;0.93;;
52360;SDS011;38294;42.966;1.608;2022-09-28T18:14:08;4.25;;;0.80;;
52360;SDS011;38294;42.966;1.608;2022-09-28T18:16:33;3.42;;;0.80;;
52360;SDS011;38294;42.966;1.608;2022-09-28T18:18:59;8.55;;;1.13;;
52360;SDS011;38294;42.966;1.608;2022-09-28T18:21:25;3.60;;;1.08;;
52360;SDS011;38294;42.966;1.608;2022-09-28T18:23:51;1.75;;;0.82;;
52360;SDS011;38294;42.966;1.608;2022-09-28T18:26:16;5.13;;;0.90;;
52360;SDS011;38294;42.966;1.608;2022-09-28T18:28:44;2.97;;;0.73;;
52360;SDS011;38294;42.966;1.608;2022-09-28T18:31:11;2.67;;;1.10;;
52360;SDS011;38294;42.966;1.608;2022-09-28T18:33:38;2.50;;;0.80;;
52360;SDS011;38294;42.966;1.608;2022-09-28T18:36:05;5.30;;;0.98;;
52360;SDS011;38294;42.966;1.608;2022-09-28T18:38:33;3.97;;;1.23;;
52360;SDS011;38294;42.966;1.608;2022-09-28T18:41:12;3.40;;;1.23;;
52360;SDS011;38294;42.966;1.608;2022-09-28T18:43:39;4.35;;;1.10;;
52360;SDS011;38294;42.966;1.608;2022-09-28T18:46:07;5.45;;;1.10;;
52360;SDS011;38294;42.966;1.608;2022-09-28T18:48:34;2.83;;;0.80;;
52360;SDS011;38294;42.966;1.608;2022-09-28T18:51:00;1.38;;;0.73;;
52360;SDS011;38294;42.966;1.608;2022-09-28T18:53:26;2.67;;;0.82;;
52360;SDS011;38294;42.966;1.608;2022-09-28T18:55:52;2.33;;;0.80;;
52360;SDS011;38294;42.966;1.608;2022-09-28T18:58:18;5.07;;;0.80;;
52360;SDS011;38294;42.966;1.608;2022-09-28T19:00:43;1.98;;;0.90;;
52360;SDS011;38294;42.966;1.608;2022-09-28T19:03:09;3.45;;;0.80;;
52360;SDS011;38294;42.966;1.608;2022-09-28T19:05:39;8.80;;;1.30;;
52360;SDS011;38294;42.966;1.608;2022-09-28T19:08:06;6.55;;;1.60;;
52360;SDS011;38294;42.966;1.608;2022-09-28T19:10:31;2.45;;;1.05;;
52360;SDS011;38294;42.966;1.608;2022-09-28T19:12:57;3.13;;;1.20;;
52360;SDS011;38294;42.966;1.608;2022-09-28T19:15:22;2.97;;;0.90;;
52360;SDS011;38294;42.966;1.608;2022-09-28T19:17:49;5.00;;;1.30;;
52360;SDS011;38294;42.966;1.608;2022-09-28T19:20:15;2.00;;;1.00;;
52360;SDS011;38294;42.966;1.608;2022-09-28T19:22:41;6.32;;;0.80;;
52360;SDS011;38294;42.966;1.608;2022-09-28T19:25:07;3.63;;;0.82;;
52360;SDS011;38294;42.966;1.608;2022-09-28T19:27:33;5.72;;;0.77;;
52360;SDS011;38294;42.966;1.608;2022-09-28T19:29:59;3.90;;;0.90;;
52360;SDS011;38294;42.966;1.608;2022-09-28T19:32:25;5.38;;;0.95;;
52360;SDS011;38294;42.966;1.608;2022-09-28T19:34:50;2.83;;;0.80;;
52360;SDS011;38294;42.966;1.608;2022-09-28T19:37:16;3.97;;;0.88;;
52360;SDS011;38294;42.966;1.608;2022-09-28T19:39:41;2.60;;;1.02;;
52360;SDS011;38294;42.966;1.608;2022-09-28T19:42:07;2.85;;;0.90;;
52360;SDS011;38294;42.966;1.608;2022-09-28T19:44:32;1.98;;;0.82;;
52360;SDS011;38294;42.966;1.608;2022-09-28T19:47:03;4.82;;;1.00;;
52360;SDS011;38294;42.966;1.608;2022-09-28T19:49:31;1.55;;;0.80;;
52360;SDS011;38294;42.966;1.608;2022-09-28T19:52:01;3.47;;;1.00;;
52360;SDS011;38294;42.966;1.608;2022-09-28T19:54:31;5.45;;;1.02;;
52360;SDS011;38294;42.966;1.608;2022-09-28T19:56:58;4.07;;;0.90;;
52360;SDS011;38294;42.966;1.608;2022-09-28T19:59:24;3.30;;;0.80;;
52360;SDS011;38294;42.966;1.608;2022-09-28T20:01:49;6.70;;;1.08;;
52360;SDS011;38294;42.966;1.608;2022-09-28T20:04:19;3.10;;;1.10;;
